Time;durP1;ratioP1;P1;durP2;ratioP2;P2;SDS_P1;SDS_P2;PMS_P1;PMS_P2;Temp;Humidity;BMP_temperature;BMP_pressure;BME280_temperature;BME280_humidity;BME280_pressure;Samples;Min_cycle;Max_cycle;Signal;HPM_P1;HPM_P2
2023/10/31 00:01:03;;;;;;;12.65;10.15;;;;;;;9.55;100.00;99596.41;5048236;28;20024;-77
2023/10/31 00:03:29;;;;;;;12.85;9.88;;;;;;;9.56;100.00;99615.63;5046476;28;20049;-77
2023/10/31 00:05:54;;;;;;;11.80;9.38;;;;;;;9.56;100.00;99613.00;5046244;28;20028;-77
2023/10/31 00:08:20;;;;;;;11.48;8.93;;;;;;;9.52;100.00;99614.25;5041075;28;20056;-77
2023/10/31 00:10:46;;;;;;;12.50;7.90;;;;;;;9.51;100.00;99623.09;5058132;28;20494;-77
2023/10/31 00:13:11;;;;;;;11.23;7.57;;;;;;;9.50;100.00;99621.44;5048126;28;20029;-77
2023/10/31 00:15:37;;;;;;;7.60;6.63;;;;;;;9.48;100.00;99628.63;5047861;28;20028;-77
2023/10/31 00:18:02;;;;;;;12.18;6.93;;;;;;;9.46;100.00;99626.13;5048040;28;20029;-77
2023/10/31 00:20:28;;;;;;;10.00;5.80;;;;;;;9.46;100.00;99622.66;5052340;28;20831;-76
2023/10/31 00:22:53;;;;;;;9.27;5.43;;;;;;;9.42;100.00;99620.31;5059021;28;20032;-77
2023/10/31 00:25:19;;;;;;;11.50;5.20;;;;;;;9.46;100.00;99620.03;5049779;28;20021;-77
2023/10/31 00:27:44;;;;;;;8.20;5.20;;;;;;;9.42;100.00;99627.38;5051593;28;20129;-77
2023/10/31 00:30:10;;;;;;;10.85;5.25;;;;;;;9.41;100.00;99623.91;5049455;28;20048;-77
2023/10/31 00:32:36;;;;;;;8.70;4.57;;;;;;;9.41;100.00;99623.91;5048148;28;20024;-77
2023/10/31 00:35:01;;;;;;;10.15;4.95;;;;;;;9.42;100.00;99630.00;5052240;28;20064;-77
2023/10/31 00:37:27;;;;;;;9.13;4.88;;;;;;;9.40;100.00;99626.66;5052553;28;20391;-77
2023/10/31 00:39:52;;;;;;;8.13;4.50;;;;;;;9.41;100.00;99633.59;5050257;28;20029;-77
2023/10/31 00:42:17;;;;;;;9.05;4.72;;;;;;;9.40;100.00;99627.50;5033941;28;20035;-77
2023/10/31 00:44:43;;;;;;;11.85;5.05;;;;;;;9.41;100.00;99631.78;5051312;28;20023;-79
2023/10/31 00:47:08;;;;;;;8.07;5.03;;;;;;;9.43;100.00;99647.41;5049774;28;20028;-78
2023/10/31 00:49:33;;;;;;;8.32;5.18;;;;;;;9.45;100.00;99649.88;5046301;28;20017;-78
2023/10/31 00:51:59;;;;;;;10.82;5.10;;;;;;;9.43;100.00;99653.47;5035169;28;20032;-78
2023/10/31 00:54:24;;;;;;;12.18;5.20;;;;;;;9.40;100.00;99653.75;5049183;28;20505;-78
2023/10/31 00:56:49;;;;;;;12.02;5.38;;;;;;;9.38;100.00;99649.59;5033093;28;20075;-78
2023/10/31 00:59:14;;;;;;;10.00;4.95;;;;;;;9.40;100.00;99659.00;5050949;28;20478;-78
2023/10/31 01:01:40;;;;;;;10.48;5.80;;;;;;;9.39;100.00;99657.34;5051698;28;20180;-78
2023/10/31 01:04:06;;;;;;;10.68;6.70;;;;;;;9.41;100.00;99655.41;5049816;28;20052;-78
2023/10/31 01:06:42;;;;;;;12.60;7.13;;;;;;;9.43;100.00;99663.97;5047340;28;20027;-78
2023/10/31 01:09:09;;;;;;;13.73;9.80;;;;;;;9.42;100.00;99667.56;5048406;28;20028;-78
2023/10/31 01:11:34;;;;;;;19.25;11.70;;;;;;;9.39;100.00;99665.22;5046401;28;20034;-78
2023/10/31 01:13:59;;;;;;;16.55;12.13;;;;;;;9.42;100.00;99675.44;5012786;28;20021;-78
2023/10/31 01:16:25;;;;;;;19.98;14.13;;;;;;;9.42;100.00;99677.25;5029729;28;20095;-78
2023/10/31 01:18:50;;;;;;;23.02;16.63;;;;;;;9.42;100.00;99678.06;5030815;28;20274;-79
2023/10/31 01:21:16;;;;;;;25.15;17.65;;;;;;;9.45;100.00;99674.34;5037724;28;20056;-78
2023/10/31 01:23:41;;;;;;;26.65;21.30;;;;;;;9.46;100.00;99678.63;5050336;28;20037;-78
2023/10/31 01:26:06;;;;;;;28.33;22.23;;;;;;;9.45;100.00;99676.16;5048132;28;20039;-78
2023/10/31 01:28:31;;;;;;;29.98;22.05;;;;;;;9.43;100.00;99682.34;5030136;28;20043;-79
2023/10/31 01:30:57;;;;;;;35.65;26.02;;;;;;;9.46;100.00;99677.81;5045255;28;20056;-79
2023/10/31 01:33:22;;;;;;;32.40;26.45;;;;;;;9.46;100.00;99672.56;5047615;28;20024;-79
2023/10/31 01:35:47;;;;;;;34.17;26.65;;;;;;;9.46;100.00;99677.81;5031042;28;20567;-79
2023/10/31 01:38:13;;;;;;;36.10;28.15;;;;;;;9.46;100.00;99680.44;5030084;28;20025;-78
2023/10/31 01:40:38;;;;;;;38.08;30.52;;;;;;;9.46;100.00;99680.44;5033729;28;20083;-78
2023/10/31 01:43:03;;;;;;;40.60;31.95;;;;;;;9.45;100.00;99679.59;5048780;28;20534;-79
2023/10/31 01:45:29;;;;;;;43.53;32.45;;;;;;;9.46;100.00;99677.81;5050210;28;20021;-78
2023/10/31 01:47:55;;;;;;;42.97;32.88;;;;;;;9.48;100.00;99681.13;5047004;28;20502;-78
2023/10/31 01:50:20;;;;;;;42.53;33.67;;;;;;;9.46;100.00;99678.63;5048101;28;20028;-79
2023/10/31 01:52:46;;;;;;;43.63;34.90;;;;;;;9.48;100.00;99670.63;5050047;28;20083;-79
2023/10/31 01:55:12;;;;;;;49.33;36.35;;;;;;;9.47;100.00;99674.22;5049593;28;20021;-79
2023/10/31 01:57:37;;;;;;;43.20;35.53;;;;;;;9.47;100.00;99675.03;5049218;28;20494;-79
2023/10/31 02:00:05;;;;;;;46.95;36.60;;;;;;;9.47;100.00;99674.22;5049547;28;20474;-79
2023/10/31 02:02:33;;;;;;;47.20;37.20;;;;;;;9.47;100.00;99679.47;5048405;28;20057;-78
2023/10/31 02:05:01;;;;;;;47.78;37.60;;;;;;;9.47;100.00;99690.78;5049107;28;20021;-79
2023/10/31 02:07:26;;;;;;;47.50;37.08;;;;;;;9.47;100.00;99689.97;5020475;28;20106;-79
2023/10/31 02:09:52;;;;;;;48.95;37.08;;;;;;;9.49;100.00;99690.66;5048433;28;20433;-79
2023/10/31 02:12:37;;;;;;;48.38;37.53;;;;;;;9.51;100.00;99692.19;5050205;28;20031;-79
2023/10/31 02:15:03;;;;;;;48.58;37.92;;;;;;;9.51;100.00;99702.69;5049596;28;20119;-79
2023/10/31 02:17:34;;;;;;;47.47;38.78;;;;;;;9.52;100.00;99682.50;5049835;28;20425;-79
2023/10/31 02:20:02;;;;;;;48.30;39.47;;;;;;;9.50;100.00;99687.06;5048238;28;20380;-79
2023/10/31 02:22:34;;;;;;;49.22;38.92;;;;;;;9.52;100.00;99687.75;5050585;28;20029;-79
2023/10/31 02:25:02;;;;;;;49.63;39.20;;;;;;;9.51;100.00;99680.84;5047402;28;20029;-79
2023/10/31 02:27:27;;;;;;;55.80;40.10;;;;;;;9.53;100.00;99676.28;5048755;28;20512;-79
2023/10/31 02:29:52;;;;;;;55.95;41.38;;;;;;;9.54;100.00;99685.81;5048212;28;20021;-79
2023/10/31 02:32:18;;;;;;;54.25;41.08;;;;;;;9.55;100.00;99677.00;5048125;28;20067;-79
2023/10/31 02:34:46;;;;;;;56.13;42.70;;;;;;;9.54;100.00;99685.81;5048960;28;20049;-79
2023/10/31 02:37:12;;;;;;;53.20;42.35;;;;;;;9.55;100.00;99684.88;5046845;28;20102;-79
2023/10/31 02:39:37;;;;;;;53.03;42.40;;;;;;;9.56;100.00;99691.78;5046881;28;20037;-79
2023/10/31 02:42:03;;;;;;;53.45;42.38;;;;;;;9.56;100.00;99689.16;5048079;28;20060;-79
2023/10/31 02:44:28;;;;;;;60.53;43.05;;;;;;;9.57;100.00;99701.31;5027311;28;20115;-79
2023/10/31 02:46:54;;;;;;;56.35;43.47;;;;;;;9.56;100.00;99694.41;5048637;28;20033;-79
2023/10/31 02:49:19;;;;;;;58.17;44.08;;;;;;;9.55;100.00;99703.25;5029784;28;20687;-79
2023/10/31 02:51:45;;;;;;;52.90;43.38;;;;;;;9.54;100.00;99698.97;5045252;28;20029;-79
2023/10/31 02:54:10;;;;;;;56.17;42.50;;;;;;;9.54;100.00;99701.59;5047057;28;20033;-79
2023/10/31 02:56:36;;;;;;;53.33;42.03;;;;;;;9.52;100.00;99703.50;5048792;28;20079;-78
2023/10/31 02:59:01;;;;;;;50.47;41.92;;;;;;;9.51;100.00;99704.47;5045775;28;20116;-79
2023/10/31 03:01:29;;;;;;;52.05;41.47;;;;;;;9.52;100.00;99703.50;5030195;28;20082;-79
2023/10/31 03:03:55;;;;;;;51.20;42.33;;;;;;;9.53;100.00;99710.44;5030672;28;20052;-79
2023/10/31 03:06:21;;;;;;;52.80;42.63;;;;;;;9.53;100.00;99716.50;5029030;28;20025;-79
2023/10/31 03:08:46;;;;;;;51.80;43.17;;;;;;;9.54;100.00;99718.16;5048060;28;20020;-79
2023/10/31 03:11:22;;;;;;;48.63;41.80;;;;;;;9.55;100.00;99719.00;5048186;28;20029;-79
2023/10/31 03:13:48;;;;;;;54.65;42.75;;;;;;;9.56;100.00;99720.66;5029689;28;20028;-79
2023/10/31 03:16:14;;;;;;;53.45;43.55;;;;;;;9.58;100.00;99729.22;5048220;28;20028;-78
2023/10/31 03:18:39;;;;;;;51.33;43.20;;;;;;;9.57;100.00;99733.66;5044099;28;20017;-78
2023/10/31 03:21:04;;;;;;;53.05;42.75;;;;;;;9.58;100.00;99735.31;5048379;28;20033;-78
2023/10/31 03:23:30;;;;;;;52.92;43.22;;;;;;;9.61;100.00;99739.50;5049255;28;20021;-78
2023/10/31 03:25:55;;;;;;;55.85;44.33;;;;;;;9.59;100.00;99750.09;5049414;28;20099;-78
2023/10/31 03:28:23;;;;;;;62.67;45.70;;;;;;;9.60;100.00;99753.56;5047462;28;20692;-78
2023/10/31 03:30:49;;;;;;;58.80;47.58;;;;;;;9.62;100.00;99746.41;5046080;28;20048;-78
2023/10/31 03:33:15;;;;;;;56.25;46.42;;;;;;;9.62;100.00;99752.50;5048144;28;20434;-78
2023/10/31 03:35:41;;;;;;;54.83;46.45;;;;;;;9.62;100.00;99759.53;5028625;28;20065;-78
2023/10/31 03:38:07;;;;;;;61.13;47.92;;;;;;;9.63;100.00;99755.94;5046612;28;20151;-78
2023/10/31 03:40:32;;;;;;;56.15;46.20;;;;;;;9.65;100.00;99756.66;5047891;28;20364;-78
2023/10/31 03:42:57;;;;;;;56.70;46.92;;;;;;;9.64;100.00;99760.22;5046963;28;20024;-78
2023/10/31 03:45:23;;;;;;;59.08;46.13;;;;;;;9.64;100.00;99754.97;5045239;28;20045;-78
2023/10/31 03:47:48;;;;;;;56.92;47.22;;;;;;;9.66;100.00;99771.44;5045854;28;20486;-78
2023/10/31 03:50:13;;;;;;;63.08;48.50;;;;;;;9.67;100.00;99768.66;5030078;28;20032;-78
2023/10/31 03:52:39;;;;;;;55.83;46.95;;;;;;;9.67;100.00;99776.56;5027627;28;20750;-78
2023/10/31 03:55:05;;;;;;;60.40;48.30;;;;;;;9.67;100.00;99786.22;5049611;28;20052;-78
2023/10/31 03:57:30;;;;;;;56.28;47.95;;;;;;;9.68;100.00;99788.72;5050726;28;20031;-78
2023/10/31 03:59:55;;;;;;;56.05;47.55;;;;;;;9.68;100.00;99780.00;5052062;28;20021;-78
2023/10/31 04:02:21;;;;;;;60.08;48.08;;;;;;;9.69;100.00;99786.91;5050063;28;20136;-78
2023/10/31 04:04:46;;;;;;;56.95;47.70;;;;;;;9.69;100.00;99794.81;5052050;28;20704;-78
2023/10/31 04:07:11;;;;;;;54.33;45.08;;;;;;;9.69;100.00;99795.63;5049788;28;20502;-78
2023/10/31 04:09:36;;;;;;;53.50;45.83;;;;;;;9.69;100.00;99794.81;5050907;28;20032;-78
2023/10/31 04:12:02;;;;;;;51.83;43.53;;;;;;;9.65;100.00;99789.00;5036606;28;20027;-78
2023/10/31 04:14:27;;;;;;;48.30;42.40;;;;;;;9.68;100.00;99798.41;5051653;28;20032;-78
2023/10/31 04:16:52;;;;;;;46.97;41.78;;;;;;;9.67;100.00;99801.97;5034011;28;20041;-78
2023/10/31 04:19:18;;;;;;;47.47;41.15;;;;;;;9.68;100.00;99798.41;5050958;28;20434;-78
2023/10/31 04:21:43;;;;;;;44.95;39.28;;;;;;;9.63;100.00;99806.69;5034203;28;20025;-78
2023/10/31 04:24:08;;;;;;;42.05;37.50;;;;;;;9.62;100.00;99806.81;5051532;28;20383;-78
2023/10/31 04:26:34;;;;;;;43.40;38.40;;;;;;;9.59;100.00;99809.66;5050680;28;20025;-78
2023/10/31 04:29:02;;;;;;;43.08;38.10;;;;;;;9.60;100.00;99816.59;5051105;28;20025;-78
2023/10/31 04:31:27;;;;;;;42.15;37.45;;;;;;;9.60;100.00;99813.97;5033648;28;20124;-78
2023/10/31 04:33:52;;;;;;;42.25;36.10;;;;;;;9.62;100.00;99822.56;5059905;28;20155;-78
2023/10/31 04:36:18;;;;;;;40.92;36.50;;;;;;;9.63;100.00;99826.84;5032883;28;20101;-78
2023/10/31 04:38:43;;;;;;;39.10;34.78;;;;;;;9.60;100.00;99824.47;5049139;28;20115;-77
2023/10/31 04:41:09;;;;;;;40.25;35.90;;;;;;;9.61;100.00;99834.03;5050329;28;20025;-77
2023/10/31 04:43:35;;;;;;;39.88;34.83;;;;;;;9.62;100.00;99833.06;5049749;28;20016;-77
2023/10/31 04:46:00;;;;;;;40.97;34.30;;;;;;;9.62;100.00;99843.56;5051124;28;20036;-78
2023/10/31 04:48:26;;;;;;;42.47;35.35;;;;;;;9.65;100.00;99843.31;5049920;28;20025;-78
2023/10/31 04:50:51;;;;;;;34.97;31.33;;;;;;;9.62;100.00;99847.03;5051279;28;20094;-78
2023/10/31 04:53:16;;;;;;;36.13;30.83;;;;;;;9.64;100.00;99844.28;5050171;28;20107;-79
2023/10/31 04:55:42;;;;;;;32.38;28.88;;;;;;;9.62;100.00;99851.47;5032897;28;20037;-78
2023/10/31 04:58:07;;;;;;;32.80;29.25;;;;;;;9.59;100.00;99851.69;5049400;28;20017;-78
2023/10/31 05:00:32;;;;;;;34.78;30.27;;;;;;;9.60;100.00;99858.59;5050157;28;20100;-78
2023/10/31 05:02:59;;;;;;;35.00;31.20;;;;;;;9.58;100.00;99858.75;5051129;28;20128;-78
2023/10/31 05:05:25;;;;;;;37.65;33.58;;;;;;;9.58;100.00;99857.91;5029445;28;20055;-79
2023/10/31 05:07:50;;;;;;;38.50;34.38;;;;;;;9.60;100.00;99866.47;5048856;28;20079;-79
2023/10/31 05:10:16;;;;;;;41.38;37.03;;;;;;;9.60;100.00;99866.47;5049806;28;20048;-78
2023/10/31 05:12:41;;;;;;;41.38;36.72;;;;;;;9.59;100.00;99857.78;5048241;28;20020;-78
2023/10/31 05:15:07;;;;;;;44.05;37.58;;;;;;;9.58;100.00;99852.66;5047083;28;20013;-78
2023/10/31 05:17:32;;;;;;;42.08;37.55;;;;;;;9.57;100.00;99856.25;5026431;28;20087;-78
2023/10/31 05:19:58;;;;;;;39.75;35.58;;;;;;;9.56;100.00;99862.47;5050040;28;20025;-78
2023/10/31 05:22:23;;;;;;;39.72;35.63;;;;;;;9.53;100.00;99860.94;5050430;28;20094;-78
2023/10/31 05:24:49;;;;;;;38.92;34.92;;;;;;;9.52;100.00;99855.81;5047383;28;20056;-78
2023/10/31 05:27:14;;;;;;;38.45;34.45;;;;;;;9.49;100.00;99846.41;5030658;28;20033;-78
2023/10/31 05:29:39;;;;;;;37.40;33.70;;;;;;;9.50;100.00;99841.97;5032883;28;21884;-78
2023/10/31 05:32:05;;;;;;;38.35;34.60;;;;;;;9.47;100.00;99858.00;5051125;28;20432;-77
2023/10/31 05:34:30;;;;;;;39.20;35.05;;;;;;;9.47;100.00;99847.50;5063388;28;20418;-78
2023/10/31 05:36:55;;;;;;;38.13;34.33;;;;;;;9.44;100.00;99853.84;5033451;28;20123;-78
2023/10/31 05:39:21;;;;;;;38.83;34.90;;;;;;;9.46;100.00;99858.97;5048871;28;20048;-78
2023/10/31 05:41:46;;;;;;;38.55;34.72;;;;;;;9.47;100.00;99863.25;5046809;28;20116;-78
2023/10/31 05:44:11;;;;;;;38.88;35.10;;;;;;;9.46;100.00;99877.34;5050419;28;20486;-78
2023/10/31 05:46:40;;;;;;;37.92;33.85;;;;;;;9.41;100.00;99881.19;5032877;28;20031;-78
2023/10/31 05:49:09;;;;;;;37.35;33.55;;;;;;;9.40;100.00;99895.28;5049457;28;20052;-78
2023/10/31 05:51:35;;;;;;;36.80;33.20;;;;;;;9.39;100.00;99888.38;5050421;28;20080;-78
2023/10/31 05:54:01;;;;;;;37.15;33.25;;;;;;;9.37;100.00;99890.28;5049224;28;20499;-78
2023/10/31 05:56:26;;;;;;;33.83;30.52;;;;;;;9.35;100.00;99897.47;5031965;28;20119;-78
2023/10/31 05:58:52;;;;;;;34.05;30.75;;;;;;;9.33;100.00;99904.63;5050348;28;20029;-78
2023/10/31 06:01:17;;;;;;;34.03;30.63;;;;;;;9.29;100.00;99905.03;5031716;28;20087;-78
2023/10/31 06:03:43;;;;;;;31.85;28.70;;;;;;;9.26;100.00;99913.16;5033308;28;20073;-78
2023/10/31 06:06:09;;;;;;;31.23;28.23;;;;;;;9.23;100.00;99911.63;5048935;28;20382;-78
2023/10/31 06:08:35;;;;;;;31.73;28.63;;;;;;;9.18;100.00;99924.28;5048926;28;20026;-78
2023/10/31 06:11:00;;;;;;;31.05;28.15;;;;;;;9.19;100.00;99919.84;5038594;28;20482;-78
2023/10/31 06:13:27;;;;;;;31.40;28.40;;;;;;;9.15;100.00;99927.16;5048087;28;20095;-78
2023/10/31 06:15:54;;;;;;;31.77;28.70;;;;;;;9.11;100.00;99923.13;5041848;28;20478;-78
2023/10/31 06:18:19;;;;;;;31.70;28.70;;;;;;;9.10;100.00;99919.66;5043877;28;20308;-78
2023/10/31 06:20:44;;;;;;;31.02;27.98;;;;;;;9.08;100.00;99928.63;5049409;28;20535;-78
2023/10/31 06:23:10;;;;;;;31.80;28.70;;;;;;;9.05;100.00;99931.50;5030150;28;20526;-78
2023/10/31 06:25:35;;;;;;;31.83;28.73;;;;;;;9.02;100.00;99935.22;5046704;28;20107;-78
2023/10/31 06:28:00;;;;;;;33.15;29.75;;;;;;;9.02;100.00;99942.25;5047904;28;20411;-78
2023/10/31 06:30:26;;;;;;;34.80;31.27;;;;;;;9.00;100.00;99950.25;5030670;28;20017;-78
2023/10/31 06:32:52;;;;;;;34.63;31.20;;;;;;;9.02;100.00;99958.00;5044910;28;20544;-78
2023/10/31 06:35:17;;;;;;;35.15;31.45;;;;;;;9.02;100.00;99952.75;5035315;28;20032;-78
2023/10/31 06:37:43;;;;;;;37.03;33.15;;;;;;;9.03;100.00;99951.78;5028467;28;20029;-78
2023/10/31 06:40:09;;;;;;;37.15;33.35;;;;;;;9.04;100.00;99950.81;5040396;28;20490;-78
2023/10/31 06:42:35;;;;;;;37.70;33.78;;;;;;;9.05;100.00;99953.31;5046047;28;20120;-78
2023/10/31 06:45:00;;;;;;;36.88;33.17;;;;;;;9.05;100.00;99953.31;5047047;28;20024;-78
2023/10/31 06:47:26;;;;;;;36.95;33.38;;;;;;;9.08;100.00;99962.72;5050068;28;20025;-78
2023/10/31 06:49:51;;;;;;;37.92;34.08;;;;;;;9.09;100.00;99962.59;5049638;28;20803;-78
2023/10/31 06:52:16;;;;;;;37.42;33.53;;;;;;;9.13;100.00;99965.81;5048127;28;20103;-78
2023/10/31 06:54:42;;;;;;;36.15;32.60;;;;;;;9.13;100.00;99965.81;5049494;28;20104;-79
2023/10/31 06:57:07;;;;;;;36.42;32.53;;;;;;;9.16;100.00;99978.69;5047856;28;20039;-79
2023/10/31 06:59:33;;;;;;;34.35;30.65;;;;;;;9.14;100.00;99977.97;5048716;28;20029;-79
2023/10/31 07:02:02;;;;;;;34.13;30.52;;;;;;;9.15;100.00;99979.63;5048510;28;20033;-79
2023/10/31 07:04:27;;;;;;;31.48;28.52;;;;;;;9.13;100.00;99976.31;5049839;28;20056;-79
2023/10/31 07:06:56;;;;;;;29.90;27.10;;;;;;;9.14;100.00;99977.97;5048849;28;20052;-79
2023/10/31 07:09:24;;;;;;;30.50;27.35;;;;;;;9.17;100.00;99988.22;5049327;28;20437;-79
2023/10/31 07:11:50;;;;;;;29.67;26.92;;;;;;;9.17;100.00;99982.13;5048647;28;20033;-78
2023/10/31 07:14:15;;;;;;;28.42;25.67;;;;;;;9.19;100.00;99986.28;5048882;28;20031;-79
2023/10/31 07:16:43;;;;;;;27.83;25.33;;;;;;;9.20;100.00;99987.97;5047021;28;20120;-79
2023/10/31 07:19:09;;;;;;;26.30;24.00;;;;;;;9.22;100.00;99988.69;5045260;28;20056;-78
2023/10/31 07:21:34;;;;;;;26.70;24.08;;;;;;;9.22;100.00;99991.31;5048347;28;20065;-78
2023/10/31 07:24:00;;;;;;;25.70;23.23;;;;;;;9.22;100.00;99993.94;5046286;28;20028;-78
2023/10/31 07:26:27;;;;;;;26.15;23.65;;;;;;;9.24;100.00;99993.81;5045722;28;20040;-78
2023/10/31 07:28:52;;;;;;;25.63;23.23;;;;;;;9.23;100.00;99998.25;5031854;28;20612;-78
2023/10/31 07:31:18;;;;;;;25.60;23.20;;;;;;;9.26;100.00;100003.22;5050667;28;20056;-78
2023/10/31 07:33:46;;;;;;;26.13;23.73;;;;;;;9.25;100.00;100006.81;5045363;28;20032;-78
2023/10/31 07:36:11;;;;;;;26.17;23.58;;;;;;;9.24;100.00;100010.41;5054085;28;20573;-78
2023/10/31 07:38:37;;;;;;;26.90;24.20;;;;;;;9.25;100.00;100005.97;5047982;28;20112;-79
2023/10/31 07:41:02;;;;;;;26.77;24.20;;;;;;;9.25;100.00;100006.81;5045538;28;20083;-79
2023/10/31 07:43:27;;;;;;;26.20;23.63;;;;;;;9.25;100.00;100005.97;5052978;28;20072;-79
2023/10/31 07:45:53;;;;;;;25.83;23.35;;;;;;;9.25;100.00;100011.22;5063768;28;20025;-79
2023/10/31 07:48:18;;;;;;;27.05;24.35;;;;;;;9.26;100.00;100003.22;5051157;28;20029;-79
2023/10/31 07:50:44;;;;;;;26.17;23.60;;;;;;;9.26;100.00;100011.09;5050732;28;20070;-79
2023/10/31 07:53:09;;;;;;;27.92;25.23;;;;;;;9.29;100.00;100008.22;5052744;28;20055;-77
2023/10/31 07:55:34;;;;;;;28.52;25.83;;;;;;;9.29;100.00;100010.84;5035809;28;20029;-77
2023/10/31 07:57:59;;;;;;;29.85;27.05;;;;;;;9.31;100.00;100011.56;5057179;28;20028;-76
2023/10/31 08:00:25;;;;;;;29.08;26.38;;;;;;;9.34;100.00;100005.22;5071881;28;20069;-76
2023/10/31 08:02:50;;;;;;;31.80;28.60;;;;;;;9.33;100.00;100008.81;5042560;28;20412;-76
2023/10/31 08:05:15;;;;;;;32.58;29.15;;;;;;;9.35;100.00;100018.22;5054492;28;20131;-76
2023/10/31 08:07:41;;;;;;;33.47;30.20;;;;;;;9.40;100.00;100021.28;5051416;28;20521;-75
2023/10/31 08:10:07;;;;;;;36.47;32.70;;;;;;;9.44;100.00;100024.50;5050454;28;20039;-76
2023/10/31 08:12:32;;;;;;;40.30;33.78;;;;;;;9.47;100.00;100031.28;5049950;28;20021;-76
2023/10/31 08:14:58;;;;;;;38.45;34.50;;;;;;;9.49;100.00;100034.63;5050707;28;20036;-76
2023/10/31 08:17:24;;;;;;;37.58;33.80;;;;;;;9.49;100.00;100029.38;5055717;28;20025;-77
2023/10/31 08:19:49;;;;;;;38.47;34.42;;;;;;;9.50;100.00;100033.66;5051729;28;20036;-78
2023/10/31 08:22:14;;;;;;;35.92;32.47;;;;;;;9.53;100.00;100042.13;5054203;28;20697;-78
2023/10/31 08:24:40;;;;;;;35.13;31.65;;;;;;;9.53;100.00;100031.63;5049563;28;20024;-78
2023/10/31 08:27:05;;;;;;;34.80;31.30;;;;;;;9.54;100.00;100037.69;5050684;28;20021;-77
2023/10/31 08:29:31;;;;;;;35.03;30.60;;;;;;;9.59;100.00;100031.09;5050571;28;20037;-77
2023/10/31 08:31:56;;;;;;;33.63;30.23;;;;;;;9.59;100.00;100035.53;5050731;28;20035;-77
2023/10/31 08:34:22;;;;;;;32.45;29.00;;;;;;;9.60;100.00;100032.78;5053579;28;20882;-77
2023/10/31 08:36:47;;;;;;;33.10;29.52;;;;;;;9.61;100.00;100044.13;5071455;28;20567;-77
2023/10/31 08:39:12;;;;;;;32.95;29.52;;;;;;;9.66;100.00;100036.72;5044248;28;20645;-77
2023/10/31 08:41:58;;;;;;;36.65;28.83;;;;;;;9.71;100.00;100045.03;5050676;28;20028;-78
2023/10/31 08:44:23;;;;;;;32.70;27.92;;;;;;;9.79;100.00;100041.75;5051041;28;20053;-78
2023/10/31 08:46:49;;;;;;;32.63;28.05;;;;;;;9.82;100.00;100050.22;5050741;28;20438;-78
2023/10/31 08:49:15;;;;;;;31.58;27.38;;;;;;;9.87;100.00;100055.09;5050407;28;20033;-78
2023/10/31 08:51:41;;;;;;;30.70;27.50;;;;;;;9.88;100.00;100057.59;5037967;28;20026;-77
2023/10/31 08:54:06;;;;;;;30.73;27.00;;;;;;;9.98;100.00;100063.72;5031388;28;20029;-78
2023/10/31 08:56:32;;;;;;;29.83;26.63;;;;;;;10.02;100.00;100074.84;5031238;28;20030;-78
2023/10/31 08:58:58;;;;;;;28.13;25.23;;;;;;;10.01;100.00;100081.88;5030173;28;20037;-78
2023/10/31 09:01:23;;;;;;;29.35;26.05;;;;;;;10.03;100.00;100082.59;5033579;28;20029;-78
2023/10/31 09:03:49;;;;;;;28.55;25.35;;;;;;;9.95;100.00;100078.91;5033464;28;20056;-78
2023/10/31 09:06:15;;;;;;;28.58;25.33;;;;;;;10.09;100.00;100085.66;5049598;28;20021;-77
2023/10/31 09:08:40;;;;;;;29.00;25.83;;;;;;;10.18;100.00;100095.41;5048452;28;20036;-77
2023/10/31 09:11:05;;;;;;;28.75;25.70;;;;;;;10.19;100.00;100099.69;5052775;28;20035;-77
2023/10/31 09:13:34;;;;;;;27.88;25.17;;;;;;;10.17;100.00;100099.00;5049871;28;20060;-77
2023/10/31 09:16:03;;;;;;;29.88;25.80;;;;;;;10.23;100.00;100109.03;5048475;28;20068;-78
2023/10/31 09:18:28;;;;;;;29.30;25.20;;;;;;;10.20;100.00;100110.13;5048871;28;20041;-78
2023/10/31 09:20:54;;;;;;;29.40;25.25;;;;;;;10.20;100.00;100114.50;5049251;28;20025;-78
2023/10/31 09:23:19;;;;;;;30.00;25.40;;;;;;;10.18;100.00;100122.53;5049727;28;20025;-77
2023/10/31 09:25:45;;;;;;;28.85;25.85;;;;;;;10.21;100.00;100121.47;5049804;28;20025;-78
2023/10/31 09:28:10;;;;;;;27.52;24.70;;;;;;;10.20;100.00;100125.03;5049992;28;20037;-77
2023/10/31 09:30:36;;;;;;;28.23;25.27;;;;;;;10.32;100.00;100118.75;5042257;28;20369;-76
2023/10/31 09:33:01;;;;;;;27.13;24.17;;;;;;;10.38;100.00;100131.38;5047125;28;20036;-76
2023/10/31 09:35:26;;;;;;;26.95;24.08;;;;;;;10.40;100.00;100137.34;5045113;28;20547;-74
2023/10/31 09:37:53;;;;;;;27.38;24.40;;;;;;;10.47;100.00;100148.19;5058318;28;20028;-75
2023/10/31 09:40:18;;;;;;;25.90;23.30;;;;;;;10.50;100.00;100151.41;5068920;28;20266;-75
2023/10/31 09:42:45;;;;;;;26.38;23.33;;;;;;;10.51;100.00;100160.97;5037903;28;20447;-75
2023/10/31 09:45:11;;;;;;;26.55;23.88;;;;;;;10.49;100.00;100155.00;5030771;28;20423;-76
2023/10/31 09:47:37;;;;;;;24.67;22.30;;;;;;;10.40;100.00;100157.53;5029853;28;20122;-76
2023/10/31 09:50:03;;;;;;;24.08;21.58;;;;;;;10.43;100.00;100159.94;5046170;28;20065;-76
2023/10/31 09:52:29;;;;;;;25.73;23.02;;;;;;;10.44;100.00;100154.56;5029377;28;20022;-76
2023/10/31 09:54:55;;;;;;;24.83;22.52;;;;;;;10.52;100.00;100162.63;5045948;28;20028;-76
2023/10/31 09:57:21;;;;;;;24.63;22.33;;;;;;;10.59;100.00;100163.75;5049197;28;20024;-76
2023/10/31 09:59:46;;;;;;;24.63;22.10;;;;;;;10.59;100.00;100157.66;5050565;28;20025;-76
2023/10/31 10:02:11;;;;;;;22.67;20.52;;;;;;;10.71;100.00;100161.03;5031947;28;20471;-76
2023/10/31 10:04:37;;;;;;;22.73;20.48;;;;;;;10.80;100.00;100160.25;5050252;28;20025;-76
2023/10/31 10:07:04;;;;;;;22.17;19.88;;;;;;;10.86;100.00;100170.28;5049509;28;20028;-76
2023/10/31 10:09:31;;;;;;;20.80;18.83;;;;;;;10.86;100.00;100180.81;5048383;28;20047;-76
2023/10/31 10:11:59;;;;;;;20.85;18.73;;;;;;;10.91;100.00;100178.59;5044372;28;20035;-76
2023/10/31 10:14:26;;;;;;;20.98;19.00;;;;;;;10.91;100.00;100184.69;5031429;28;20036;-76
2023/10/31 10:16:52;;;;;;;21.08;19.05;;;;;;;10.90;100.00;100190.09;5030040;28;20037;-76
2023/10/31 10:19:20;;;;;;;21.10;19.20;;;;;;;10.85;100.00;100192.28;5048684;28;20024;-76
2023/10/31 10:21:54;;;;;;;21.13;19.17;;;;;;;10.79;100.00;100198.06;5032365;28;20029;-76
2023/10/31 10:24:21;;;;;;;20.92;18.75;;;;;;;10.73;100.00;100203.84;5048215;28;20503;-77
2023/10/31 10:26:47;;;;;;;20.90;18.70;;;;;;;10.74;100.00;100203.72;5047297;28;20064;-77
2023/10/31 10:29:12;;;;;;;20.42;17.80;;;;;;;10.70;100.00;100190.94;5029688;28;20064;-76
2023/10/31 10:31:38;;;;;;;19.63;17.65;;;;;;;10.79;100.00;100205.94;5046604;28;20021;-76
2023/10/31 10:34:03;;;;;;;18.48;16.67;;;;;;;10.87;100.00;100201.72;5046946;28;20116;-76
2023/10/31 10:36:31;;;;;;;21.77;16.50;;;;;;;10.94;100.00;100209.94;5044010;28;20079;-76
2023/10/31 10:38:57;;;;;;;18.33;16.45;;;;;;;10.92;100.00;100211.84;5049451;28;20490;-77
2023/10/31 10:41:26;;;;;;;16.98;15.40;;;;;;;11.02;100.00;100211.91;5030211;28;20029;-77
2023/10/31 10:43:55;;;;;;;19.63;16.35;;;;;;;11.05;100.00;100220.34;5028482;28;20485;-77
2023/10/31 10:46:24;;;;;;;17.58;15.98;;;;;;;11.06;100.00;100218.56;5029090;28;20033;-77
2023/10/31 10:48:54;;;;;;;17.67;15.98;;;;;;;11.02;100.00;100227.69;5029594;28;20025;-77
2023/10/31 10:51:35;;;;;;;17.27;15.60;;;;;;;10.99;100.00;100236.69;5027746;28;20047;-77
2023/10/31 10:54:18;;;;;;;17.35;15.65;;;;;;;10.95;100.00;100235.28;5038660;28;20102;-77
2023/10/31 10:56:55;;;;;;;;;;;;;;;11.03;100.00;100230.19;5049068;28;20517;-77
2023/10/31 10:59:24;;;;;;;17.80;16.02;;;;;;;10.81;100.00;100235.63;5031301;28;19974;-77
2023/10/31 11:01:51;;;;;;;18.60;16.77;;;;;;;10.81;100.00;100235.63;5049211;28;20060;-76
2023/10/31 11:04:17;;;;;;;18.70;16.70;;;;;;;10.83;100.00;100233.69;5047479;28;20017;-76
2023/10/31 11:06:43;;;;;;;19.48;17.40;;;;;;;10.82;100.00;100227.59;5048575;28;20029;-77
2023/10/31 11:09:10;;;;;;;21.13;18.58;;;;;;;10.80;100.00;100226.88;5030111;28;20052;-77